METAR Data
IDs: Format: Raw Decoded Include TAF

Data at: 1421 UTC 16 Aug 2022

KL08 161415Z AUTO 00000KT 10SM CLR 28/08 A2976 RMK AO2
KL08 161355Z AUTO 00000KT 10SM CLR 27/08 A2975 RMK AO2
KL08 161335Z AUTO 36006KT 10SM CLR 27/08 A2975 RMK AO2
KL08 161315Z AUTO 00000KT 10SM CLR 25/08 A2974 RMK AO2
KL08 161255Z AUTO 31004KT 10SM CLR 26/06 A2973 RMK AO2
KL08 161235Z AUTO 34005KT 10SM CLR 27/06 A2972 RMK AO2
KL08 161215Z AUTO 00000KT 10SM FEW033 FEW040 FEW047 26/07 A2972 RMK AO2
KL08 161155Z AUTO 00000KT 10SM FEW034 SCT041 27/07 A2972 RMK AO2
KL08 161135Z AUTO 00000KT 10SM FEW039 27/07 A2972 RMK AO2
KL08 161115Z AUTO 00000KT 10SM FEW040 26/07 A2972 RMK AO2
KL08 161055Z AUTO 25003KT 10SM CLR 29/06 A2972 RMK AO2
KL08 161035Z AUTO 34006KT 10SM CLR 30/06 A2972 RMK AO2
KL08 161015Z AUTO 33007KT 10SM FEW037 FEW044 FEW055 29/06 A2972 RMK AO2
KL08 160955Z AUTO 33006KT 10SM FEW035 FEW043 BKN050 29/06 A2973 RMK AO2
KL08 160935Z AUTO 31006KT 10SM OVC050 29/06 A2973 RMK AO2
KL08 160915Z AUTO 28004KT 10SM BKN050 OVC060 29/06 A2973 RMK AO2
KL08 160855Z AUTO 00000KT 10SM SCT047 OVC055 30/06 A2973 RMK AO2
KL08 160835Z AUTO 30005KT 10SM SCT047 OVC055 30/06 A2973 RMK AO2
KL08 160815Z AUTO 29004KT 10SM BKN050 OVC060 31/06 A2973 RMK AO2
KL08 160755Z AUTO 29004KT 10SM BKN050 OVC060 32/06 A2973 RMK AO2
KL08 160735Z AUTO 29006KT 10SM BKN050 OVC060 33/05 A2973 RMK AO2
KL08 160715Z AUTO 32007G13KT 10SM BKN055 BKN065 34/04 A2973 RMK AO2
KL08 160655Z AUTO 34011KT 10SM BKN055 BKN065 34/04 A2973 RMK AO2
KL08 160635Z AUTO 34011KT 10SM FEW045 BKN050 BKN065 35/05 A2974 RMK AO2
KL08 160615Z AUTO 32011KT 10SM BKN050 BKN060 35/04 A2973 RMK AO2
KL08 160555Z AUTO 33012G18KT 10SM FEW040 FEW049 BKN060 35/03 A2974 RMK AO2
KL08 160535Z AUTO 34015KT 10SM FEW040 FEW047 BKN060 35/03 A2974 RMK AO2
KL08 160515Z AUTO 34014KT 10SM SCT040 BKN047 OVC065 35/03 A2974 RMK AO2
KL08 160455Z AUTO 34014KT 10SM FEW040 BKN048 OVC065 36/04 A2974 RMK AO2
KL08 160435Z AUTO 34015KT 10SM FEW039 BKN049 OVC055 36/05 A2974 RMK AO2
KL08 160415Z AUTO 34013KT 10SM FEW036 BKN047 OVC055 36/07 A2973 RMK AO2
KL08 160355Z AUTO 34011KT 10SM FEW033 SCT046 BKN055 37/08 A2972 RMK AO2
KL08 160335Z AUTO 26005KT 10SM FEW043 SCT048 BKN055 37/10 A2971 RMK AO2
KL08 160315Z AUTO 24009KT 10SM FEW037 SCT045 BKN055 37/10 A2971 RMK AO2
KL08 160255Z AUTO 23010KT 10SM CLR 38/11 A2970 RMK AO2
KL08 160235Z AUTO 17006KT 10SM CLR 38/14 A2969 RMK AO2
KL08 160215Z AUTO 13005KT 10SM CLR 39/15 A2969 RMK AO2
KL08 160155Z AUTO 14006KT 10SM CLR 39/15 A2969 RMK AO2
KL08 160135Z AUTO 11005KT 10SM CLR 39/15 A2969 RMK AO2
KL08 160115Z AUTO 13005KT 10SM CLR 39/15 A2969 RMK AO2
KL08 160055Z AUTO 00000KT 10SM CLR 39/15 A2969 RMK AO2
KL08 160035Z AUTO VRB04KT 10SM CLR 40/16 A2970 RMK AO2
KL08 160015Z AUTO 00000KT 10SM CLR 40/16 A2970 RMK AO2
KL08 152355Z AUTO 00000KT 10SM CLR 39/15 A2971 RMK AO2
KL08 152335Z AUTO 16005KT 10SM CLR 39/15 A2971 RMK AO2
KL08 152315Z AUTO 14004KT 10SM CLR 38/15 A2971 RMK AO2
KL08 152255Z AUTO 10006KT 10SM CLR 40/16 A2972 RMK AO2
KL08 152235Z AUTO VRB06KT 10SM CLR 40/16 A2972 RMK AO2
KL08 152215Z AUTO VRB05KT 10SM CLR 39/15 A2973 RMK AO2
KL08 152155Z AUTO 18007KT 10SM CLR 39/15 A2974 RMK AO2
KL08 152135Z AUTO 00000G11KT 9SM CLR 38/16 A2975 RMK AO2
KL08 152115Z AUTO 00000G11KT 10SM CLR 38/15 A2976 RMK AO2
KL08 152055Z AUTO 09010KT 080V150 9SM CLR 38/17 A2977 RMK AO2
KL08 152035Z AUTO 15010KT 10SM CLR 37/18 A2978 RMK AO2
KL08 152015Z AUTO 10007G12KT 080V140 9SM CLR 37/18 A2979 RMK AO2
KL08 151955Z AUTO 15007KT 10SM CLR 37/18 A2980 RMK AO2
KL08 151935Z AUTO 13009KT 9SM CLR 37/19 A2980 RMK AO2
KL08 151915Z AUTO 14005G11KT 9SM CLR 36/19 A2981 RMK AO2
KL08 151855Z AUTO 12003KT 9SM CLR 36/19 A2982 RMK AO2
KL08 151835Z AUTO VRB06KT 9SM CLR 35/19 A2983 RMK AO2
KL08 151815Z AUTO 11005KT 10SM CLR 35/19 A2983 RMK AO2
KL08 151755Z AUTO VRB04G10KT 8SM CLR 34/19 A2983 RMK AO2
KL08 151735Z AUTO VRB04KT 7SM CLR 34/19 A2983 RMK AO2
KL08 151715Z AUTO 09008KT 070V130 8SM CLR 34/20 A2983 RMK AO2
KL08 151655Z AUTO 15004KT 9SM CLR 33/20 A2983 RMK AO2
KL08 151635Z AUTO 12003KT 8SM CLR 32/20 A2983 RMK AO2
KL08 151615Z AUTO VRB05KT 8SM CLR 31/20 A2983 RMK AO2
KL08 151555Z AUTO 00000KT 8SM CLR 31/21 A2983 RMK AO2
KL08 151535Z AUTO 00000KT 10SM CLR 30/21 A2982 RMK AO2
KL08 151515Z AUTO 11003KT 10SM CLR 30/21 A2982 RMK AO2
KL08 151455Z AUTO 00000KT 10SM CLR 30/21 A2982 RMK AO2
KL08 151435Z AUTO 00000KT 10SM CLR 29/21 A2981 RMK AO2
KL08 151415Z AUTO 00000KT 7SM CLR 29/20 A2982 RMK AO2
KL08 151355Z AUTO 00000KT 7SM CLR 27/19 A2982 RMK AO2
KL08 151335Z AUTO 27003KT 6SM HZ CLR 26/19 A2982 RMK AO2
KL08 151315Z AUTO 26003KT 6SM HZ SCT021 26/19 A2982 RMK AO2
KL08 151255Z AUTO 32003KT 7SM OVC020 27/19 A2982 RMK AO2
KL08 151235Z AUTO 00000KT 8SM BKN020 OVC024 27/19 A2981 RMK AO2
KL08 151215Z AUTO 31005KT 10SM OVC022 28/20 A2981 RMK AO2
KL08 151155Z AUTO 16004KT 10SM OVC021 28/20 A2981 RMK AO2
KL08 151135Z AUTO 12006KT 10SM OVC021 29/20 A2981 RMK AO2
KL08 151115Z AUTO 12007KT 8SM BKN021 OVC027 29/20 A2981 RMK AO2
KL08 151055Z AUTO 08003KT 5SM HZ FEW003 OVC023 28/19 A2981 RMK AO2
KL08 151035Z AUTO 00000KT 6SM HZ SCT003 BKN023 OVC029 28/19 A2981 RMK AO2
KL08 151015Z AUTO 08003KT 7SM BKN003 BKN024 OVC029 28/18 A2981 RMK AO2
KL08 150955Z AUTO 00000KT 7SM FEW003 BKN022 OVC028 28/18 A2981 RMK AO2
KL08 150935Z AUTO 00000KT 7SM BKN020 OVC028 28/18 A2981 RMK AO2
KL08 150915Z AUTO 00000KT 8SM OVC020 29/18 A2982 RMK AO2
KL08 150855Z AUTO 24003KT 7SM OVC021 30/18 A2982 RMK AO2
KL08 150835Z AUTO 00000KT 7SM OVC020 30/19 A2983 RMK AO2
KL08 150815Z AUTO 05005KT 7SM OVC020 30/19 A2984 RMK AO2
KL08 150755Z AUTO 34005KT 8SM OVC020 30/19 A2984 RMK AO2
KL08 150735Z AUTO 30005KT 7SM BKN019 OVC024 31/19 A2984 RMK AO2
KL08 150715Z AUTO 08007G12KT 6SM HZ SCT003 BKN022 BKN041 31/19 A2984 RMK AO2
KL08 150655Z AUTO 09012KT 4SM HZ SCT003 OVC020 31/18 A2984 RMK AO2
KL08 150635Z AUTO 11015G22KT 7SM BKN019 BKN025 OVC100 32/18 A2984 RMK AO2
KL08 150615Z AUTO 10018G24KT 10SM FEW025 FEW037 SCT100 34/15 A2983 RMK AO2
KL08 150555Z AUTO 01003KT 10SM CLR 34/08 A2981 RMK AO2
KL08 150535Z AUTO 34006KT 10SM CLR 34/09 A2980 RMK AO2
KL08 150515Z AUTO 27003G11KT 10SM CLR 34/10 A2980 RMK AO2
KL08 150455Z AUTO 32009KT 10SM CLR 35/09 A2979 RMK AO2
KL08 150435Z AUTO 33011KT 10SM CLR 35/09 A2979 RMK AO2
KL08 150415Z AUTO 33013KT 10SM FEW042 35/10 A2978 RMK AO2
KL08 150355Z AUTO 33012KT 10SM FEW044 36/10 A2978 RMK AO2
KL08 150335Z AUTO 29005KT 10SM CLR 36/11 A2977 RMK AO2
KL08 150315Z AUTO 28007KT 10SM CLR 36/11 A2976 RMK AO2
KL08 150255Z AUTO 27008KT 10SM CLR 37/11 A2975 RMK AO2
KL08 150235Z AUTO 29009KT 10SM CLR 38/11 A2975 RMK AO2